createdAt,value
2017-07-10T00:00:20.856Z,7.60
2017-07-10T00:02:47.498Z,7.53
2017-07-10T00:05:14.131Z,7.30
2017-07-10T00:07:40.765Z,7.27
2017-07-10T00:10:07.372Z,8.80
2017-07-10T00:12:34.040Z,7.77
2017-07-10T00:15:00.663Z,7.30
2017-07-10T00:17:27.323Z,7.73
2017-07-10T00:19:53.992Z,7.30
2017-07-10T00:22:20.625Z,7.87
2017-07-10T00:24:47.257Z,8.07
2017-07-10T00:27:13.905Z,9.07
2017-07-10T00:29:40.523Z,9.10
2017-07-10T00:32:07.181Z,8.20
2017-07-10T00:34:33.836Z,7.90
2017-07-10T00:37:00.496Z,7.13
2017-07-10T00:39:27.114Z,8.50
2017-07-10T00:41:53.760Z,8.90
2017-07-10T00:44:20.416Z,9.60
2017-07-10T00:46:47.057Z,11.10
2017-07-10T00:49:13.698Z,8.80
2017-07-10T00:51:40.332Z,7.93
2017-07-10T00:54:06.965Z,8.90
2017-07-10T00:56:33.596Z,7.43
2017-07-10T00:59:00.220Z,8.17
2017-07-10T01:01:26.851Z,8.33
2017-07-10T01:03:53.468Z,9.53
2017-07-10T01:06:20.127Z,8.10
2017-07-10T01:08:46.768Z,9.00
2017-07-10T01:11:13.426Z,7.43
2017-07-10T01:13:40.059Z,8.37
2017-07-10T01:16:06.673Z,7.73
2017-07-10T01:18:33.303Z,9.00
2017-07-10T01:20:59.948Z,9.27
2017-07-10T01:23:26.565Z,8.70
2017-07-10T01:25:53.293Z,9.77
2017-07-10T01:28:19.920Z,8.60
2017-07-10T01:30:46.560Z,8.07
2017-07-10T01:33:13.186Z,7.97
2017-07-10T01:35:39.795Z,9.57
2017-07-10T01:38:06.465Z,10.13
2017-07-10T01:40:33.097Z,9.27
2017-07-10T01:42:59.749Z,9.80
2017-07-10T01:45:26.366Z,9.70
2017-07-10T01:47:52.988Z,9.63
2017-07-10T01:50:19.633Z,10.60
2017-07-10T01:52:46.258Z,10.40
2017-07-10T01:55:12.900Z,10.40
2017-07-10T01:57:39.540Z,10.30
2017-07-10T02:00:06.204Z,10.10
2017-07-10T02:02:32.825Z,10.50
2017-07-10T02:04:59.453Z,10.63
2017-07-10T02:07:26.112Z,9.60
2017-07-10T02:09:52.768Z,9.90
2017-07-10T02:12:19.395Z,10.60
2017-07-10T02:14:46.038Z,10.90
2017-07-10T02:17:12.656Z,10.70
2017-07-10T02:19:39.270Z,11.87
2017-07-10T02:22:05.926Z,11.57
2017-07-10T02:24:32.546Z,11.97
2017-07-10T02:26:59.180Z,11.70
2017-07-10T02:29:25.814Z,10.73
2017-07-10T02:31:52.438Z,12.30
2017-07-10T02:34:19.081Z,11.30
2017-07-10T02:36:45.706Z,11.30
2017-07-10T02:39:12.358Z,10.20
2017-07-10T02:41:38.996Z,10.93
2017-07-10T02:44:05.621Z,10.90
2017-07-10T02:46:32.281Z,11.27
2017-07-10T02:48:58.901Z,12.87
2017-07-10T02:51:25.557Z,11.53
2017-07-10T02:53:52.204Z,10.80
2017-07-10T02:56:18.860Z,12.90
2017-07-10T02:58:45.484Z,12.00
2017-07-10T03:01:12.114Z,13.40
2017-07-10T03:03:38.765Z,13.47
2017-07-10T03:06:05.380Z,13.13
2017-07-10T03:08:32.033Z,14.23
2017-07-10T03:10:58.645Z,13.77
2017-07-10T03:13:25.281Z,13.83
2017-07-10T03:15:51.948Z,17.00
2017-07-10T03:18:18.576Z,15.60
2017-07-10T03:20:45.224Z,16.30
2017-07-10T03:23:11.855Z,15.80
2017-07-10T03:25:38.488Z,15.90
2017-07-10T03:28:05.124Z,16.60
2017-07-10T03:30:31.777Z,15.90
2017-07-10T03:32:58.445Z,17.47
2017-07-10T03:35:25.067Z,14.50
2017-07-10T03:37:51.705Z,15.30
2017-07-10T03:40:18.339Z,15.33
2017-07-10T03:42:45.003Z,14.20
2017-07-10T03:45:11.663Z,13.60
2017-07-10T03:47:38.284Z,16.60
2017-07-10T03:50:04.905Z,16.50
2017-07-10T03:52:31.546Z,16.70
2017-07-10T03:54:58.186Z,14.37
2017-07-10T03:57:24.827Z,13.80
2017-07-10T03:59:51.468Z,14.70
2017-07-10T04:02:18.106Z,16.63
2017-07-10T04:04:44.777Z,14.67
2017-07-10T04:07:11.416Z,15.40
2017-07-10T04:09:38.078Z,17.60
2017-07-10T04:12:05.956Z,17.23
2017-07-10T04:14:32.619Z,16.40
2017-07-10T04:16:59.268Z,16.43
2017-07-10T04:19:25.899Z,17.60
2017-07-10T04:21:52.546Z,15.63
2017-07-10T04:24:19.163Z,15.90
2017-07-10T04:26:45.797Z,15.83
2017-07-10T04:29:12.461Z,16.70
2017-07-10T04:31:39.096Z,17.07
2017-07-10T04:34:05.736Z,16.97
2017-07-10T04:36:32.365Z,15.67
2017-07-10T04:38:59.021Z,15.80
2017-07-10T04:41:25.678Z,17.80
2017-07-10T04:43:52.333Z,15.87
2017-07-10T04:46:18.978Z,20.33
2017-07-10T04:48:45.596Z,17.07
2017-07-10T04:51:12.268Z,18.50
2017-07-10T04:53:38.925Z,17.37
2017-07-10T04:56:05.541Z,19.90
2017-07-10T04:58:32.183Z,17.90
2017-07-10T05:00:58.816Z,18.70
2017-07-10T05:03:25.465Z,19.40
2017-07-10T05:05:52.109Z,18.87
2017-07-10T05:08:18.725Z,18.20
2017-07-10T05:10:45.386Z,17.50
2017-07-10T05:13:12.027Z,19.33
2017-07-10T05:15:38.731Z,19.10
2017-07-10T05:18:05.352Z,19.63
2017-07-10T05:20:31.976Z,18.70
2017-07-10T05:22:58.619Z,18.73
2017-07-10T05:25:25.253Z,18.63
2017-07-10T05:27:51.912Z,21.13
2017-07-10T05:30:18.569Z,19.67
2017-07-10T05:32:45.195Z,19.63
2017-07-10T05:35:11.820Z,18.67
2017-07-10T05:37:38.481Z,20.23
2017-07-10T05:40:05.107Z,19.87
2017-07-10T05:42:31.783Z,19.30
2017-07-10T05:44:58.421Z,17.87
2017-07-10T05:47:25.060Z,19.90
2017-07-10T05:49:51.816Z,19.13
2017-07-10T05:52:18.789Z,19.23
2017-07-10T05:54:45.424Z,19.17
2017-07-10T05:57:12.085Z,18.23
2017-07-10T05:59:38.762Z,19.50
2017-07-10T06:02:05.399Z,19.47
2017-07-10T06:04:32.027Z,18.80
2017-07-10T06:06:58.693Z,20.23
2017-07-10T06:09:25.415Z,18.57
2017-07-10T06:11:52.054Z,19.40
2017-07-10T06:14:18.721Z,18.77
2017-07-10T06:16:45.352Z,19.33
2017-07-10T06:19:11.985Z,18.93
2017-07-10T06:21:38.638Z,18.30
2017-07-10T06:24:05.264Z,19.13
2017-07-10T06:26:31.899Z,16.63
2017-07-10T06:28:58.550Z,19.73
2017-07-10T06:31:25.204Z,18.13
2017-07-10T06:33:51.840Z,19.17
2017-07-10T06:36:18.497Z,18.80
2017-07-10T06:38:45.134Z,21.67
2017-07-10T06:41:11.760Z,19.83
2017-07-10T06:43:38.412Z,19.27
2017-07-10T06:46:05.049Z,19.23
2017-07-10T06:48:31.693Z,19.03
2017-07-10T06:50:58.311Z,20.27
2017-07-10T06:53:24.951Z,19.37
2017-07-10T06:55:53.623Z,20.60
2017-07-10T06:58:20.261Z,21.17
2017-07-10T07:00:46.917Z,20.80
2017-07-10T07:03:13.559Z,19.80
2017-07-10T07:05:40.220Z,21.07
2017-07-10T07:08:06.878Z,20.47
2017-07-10T07:10:33.535Z,24.10
2017-07-10T07:13:00.170Z,23.77
2017-07-10T07:15:26.819Z,24.83
2017-07-10T07:17:53.492Z,24.87
2017-07-10T07:20:20.125Z,25.77
2017-07-10T07:22:46.780Z,26.90
2017-07-10T07:25:13.408Z,28.23
2017-07-10T07:27:40.025Z,28.17
2017-07-10T07:30:06.713Z,29.77
2017-07-10T07:32:33.339Z,29.63
2017-07-10T07:34:59.973Z,31.13
2017-07-10T07:37:26.644Z,32.57
2017-07-10T07:39:53.287Z,32.40
2017-07-10T07:42:19.969Z,31.27
2017-07-10T07:44:46.612Z,30.37
2017-07-10T07:47:13.240Z,33.20
2017-07-10T07:49:39.914Z,36.00
2017-07-10T07:52:06.537Z,35.60
2017-07-10T07:54:33.201Z,35.03
2017-07-10T07:56:59.879Z,35.30
2017-07-10T07:59:26.521Z,39.00
2017-07-10T08:01:53.154Z,39.80
2017-07-10T08:04:19.823Z,38.67
2017-07-10T08:06:46.460Z,42.57
2017-07-10T08:09:13.115Z,41.80
2017-07-10T08:11:39.792Z,42.87
2017-07-10T08:14:06.423Z,43.33
2017-07-10T08:16:33.073Z,45.33
2017-07-10T08:18:59.720Z,44.23
2017-07-10T08:21:26.364Z,43.40
2017-07-10T08:23:53.726Z,42.10
2017-07-10T08:26:20.384Z,45.00
2017-07-10T08:28:47.005Z,38.70
2017-07-10T08:31:13.645Z,37.90
2017-07-10T08:33:40.281Z,40.40
2017-07-10T08:36:06.948Z,42.53
2017-07-10T08:38:33.621Z,37.90
2017-07-10T08:41:00.249Z,37.17
2017-07-10T08:43:26.888Z,35.60
2017-07-10T08:45:53.536Z,35.87
2017-07-10T08:48:20.204Z,34.30
2017-07-10T08:50:46.866Z,32.70
2017-07-10T08:53:13.499Z,32.23
2017-07-10T08:55:40.181Z,35.33
2017-07-10T08:58:06.809Z,34.53
2017-07-10T09:00:33.445Z,34.07
2017-07-10T09:03:00.082Z,32.30
2017-07-10T09:05:26.725Z,30.83
2017-07-10T09:07:53.360Z,32.67
2017-07-10T09:10:19.988Z,33.70
2017-07-10T09:12:46.665Z,33.60
2017-07-10T09:15:13.311Z,34.10
2017-07-10T09:17:39.960Z,31.70
2017-07-10T09:20:06.601Z,28.73
2017-07-10T09:22:33.265Z,29.50
2017-07-10T09:24:59.888Z,30.37
2017-07-10T09:27:26.551Z,29.73
2017-07-10T09:29:53.176Z,29.70
2017-07-10T09:32:19.847Z,29.67
2017-07-10T09:34:46.475Z,29.90
2017-07-10T09:37:13.102Z,32.47
2017-07-10T09:39:39.771Z,32.50
2017-07-10T09:42:06.416Z,30.50
2017-07-10T09:44:33.051Z,30.03
2017-07-10T09:46:59.695Z,27.57
2017-07-10T09:49:26.371Z,27.07
2017-07-10T09:51:53.023Z,27.07
2017-07-10T09:54:19.644Z,26.10
2017-07-10T09:56:46.289Z,24.97
2017-07-10T09:59:12.932Z,25.37
2017-07-10T10:01:39.593Z,24.03
2017-07-10T10:04:06.244Z,22.60
2017-07-10T10:06:32.864Z,21.43
2017-07-10T10:08:59.515Z,22.20
2017-07-10T10:11:26.137Z,22.00
2017-07-10T10:13:52.789Z,21.50
2017-07-10T10:16:19.449Z,21.37
2017-07-10T10:18:46.073Z,21.80
2017-07-10T10:21:12.696Z,21.03
2017-07-10T10:23:39.343Z,18.90
2017-07-10T10:26:06.004Z,20.50
2017-07-10T10:28:32.632Z,17.67
2017-07-10T10:30:59.268Z,20.53
2017-07-10T10:33:25.905Z,19.23
2017-07-10T10:35:52.523Z,14.37
2017-07-10T10:38:19.175Z,14.10
2017-07-10T10:40:45.847Z,14.67
2017-07-10T10:43:12.500Z,20.27
2017-07-10T10:45:39.156Z,16.60
2017-07-10T10:48:05.793Z,14.90
2017-07-10T10:50:32.435Z,17.90
2017-07-10T10:52:59.085Z,14.53
2017-07-10T10:55:25.729Z,16.40
2017-07-10T10:57:52.365Z,17.07
2017-07-10T11:00:19.028Z,16.13
2017-07-10T11:02:45.704Z,17.23
2017-07-10T11:05:12.347Z,16.47
2017-07-10T11:07:39.003Z,16.30
2017-07-10T11:10:05.657Z,11.93
2017-07-10T11:12:32.301Z,12.70
2017-07-10T11:14:58.939Z,16.10
2017-07-10T11:17:25.613Z,15.53
2017-07-10T11:19:52.259Z,15.10
2017-07-10T11:22:18.922Z,11.33
2017-07-10T11:24:45.583Z,10.10
2017-07-10T11:27:12.234Z,9.57
2017-07-10T11:29:38.861Z,8.00
2017-07-10T11:32:05.501Z,8.80
2017-07-10T11:34:32.147Z,8.70
2017-07-10T11:36:58.768Z,8.70
2017-07-10T11:39:25.417Z,7.40
2017-07-10T11:41:52.249Z,8.70
2017-07-10T11:44:18.902Z,6.90
2017-07-10T11:46:45.542Z,6.53
2017-07-10T11:49:12.184Z,7.60
2017-07-10T11:51:38.824Z,8.00
2017-07-10T11:54:05.488Z,6.33
2017-07-10T11:56:32.159Z,6.80
2017-07-10T11:58:58.813Z,9.40
2017-07-10T12:01:25.497Z,7.97
2017-07-10T12:03:52.141Z,6.80
2017-07-10T12:06:18.776Z,7.30
2017-07-10T12:08:45.416Z,5.30
2017-07-10T12:11:12.052Z,6.30
2017-07-10T12:13:38.698Z,6.20
2017-07-10T12:16:05.323Z,5.10
2017-07-10T12:18:31.967Z,5.63
2017-07-10T12:20:58.613Z,4.67
2017-07-10T12:23:25.247Z,5.13
2017-07-10T12:25:51.884Z,6.80
2017-07-10T12:28:18.514Z,5.13
2017-07-10T12:30:45.462Z,5.50
2017-07-10T12:33:12.097Z,4.97
2017-07-10T12:35:38.756Z,5.67
2017-07-10T12:38:05.394Z,5.00
2017-07-10T12:40:32.032Z,5.17
2017-07-10T12:42:58.682Z,5.60
2017-07-10T12:45:25.331Z,5.97
2017-07-10T12:47:51.960Z,5.07
2017-07-10T12:50:19.519Z,5.50
2017-07-10T12:52:46.213Z,7.70
2017-07-10T12:55:12.877Z,8.00
2017-07-10T12:57:39.773Z,8.50
2017-07-10T13:00:07.315Z,5.87
2017-07-10T13:02:35.950Z,7.20
2017-07-10T13:05:02.760Z,7.20
2017-07-10T13:07:29.462Z,7.50
2017-07-10T13:09:58.055Z,6.27
2017-07-10T13:12:27.989Z,6.97
2017-07-10T13:14:55.730Z,5.40
2017-07-10T13:17:25.327Z,9.20
2017-07-10T13:19:55.632Z,6.60
2017-07-10T13:22:24.014Z,6.23
2017-07-10T13:24:50.648Z,6.70
2017-07-10T13:27:17.269Z,6.23
2017-07-10T13:29:43.953Z,6.87
2017-07-10T13:32:10.571Z,5.50
2017-07-10T13:34:37.179Z,6.80
2017-07-10T13:37:03.834Z,9.70
2017-07-10T13:39:30.472Z,9.27
2017-07-10T13:41:57.108Z,8.90
2017-07-10T13:44:23.736Z,9.40
2017-07-10T13:46:50.413Z,7.67
2017-07-10T13:49:17.023Z,5.00
2017-07-10T13:51:43.637Z,6.40
2017-07-10T13:54:10.285Z,5.40
2017-07-10T13:56:36.923Z,5.70
2017-07-10T13:59:03.571Z,4.40
2017-07-10T14:01:30.185Z,4.23
2017-07-10T14:03:56.817Z,3.90
2017-07-10T14:06:23.458Z,5.07
2017-07-10T14:08:50.089Z,4.93
2017-07-10T14:11:16.757Z,5.30
2017-07-10T14:13:43.373Z,6.73
2017-07-10T14:16:11.304Z,6.53
2017-07-10T14:18:37.977Z,7.57
2017-07-10T14:21:04.613Z,7.43
2017-07-10T14:23:31.280Z,7.20
2017-07-10T14:25:57.898Z,6.80
2017-07-10T14:28:24.577Z,7.33
2017-07-10T14:30:51.199Z,7.47
2017-07-10T14:33:17.842Z,6.23
2017-07-10T14:35:44.473Z,7.13
2017-07-10T14:38:11.121Z,8.80
2017-07-10T14:40:37.763Z,8.03
2017-07-10T14:43:04.387Z,5.50
2017-07-10T14:45:31.040Z,7.10
2017-07-10T14:47:57.689Z,6.57
2017-07-10T14:50:24.319Z,6.50
2017-07-10T14:52:50.980Z,7.10
2017-07-10T14:55:17.640Z,7.50
2017-07-10T14:57:44.284Z,8.80
2017-07-10T15:00:10.902Z,8.40
2017-07-10T15:02:37.528Z,7.57
2017-07-10T15:05:04.185Z,6.17
2017-07-10T15:07:30.832Z,7.53
2017-07-10T15:09:57.468Z,9.83
2017-07-10T15:12:24.104Z,6.37
2017-07-10T15:14:50.831Z,6.20
2017-07-10T15:17:17.488Z,5.87
2017-07-10T15:19:44.124Z,6.13
2017-07-10T15:22:10.776Z,7.97
2017-07-10T15:24:37.412Z,6.83
2017-07-10T15:27:04.068Z,6.57
2017-07-10T15:29:30.714Z,4.47
2017-07-10T15:31:57.387Z,5.00
2017-07-10T15:34:24.023Z,4.93
2017-07-10T15:36:50.668Z,6.03
2017-07-10T15:39:17.386Z,6.67
2017-07-10T15:41:43.956Z,6.10
2017-07-10T15:44:10.605Z,4.30
2017-07-10T15:46:37.242Z,5.17
2017-07-10T15:49:04.294Z,4.17
2017-07-10T15:51:30.920Z,4.33
2017-07-10T15:53:57.545Z,5.00
2017-07-10T15:56:24.214Z,3.37
2017-07-10T15:58:50.842Z,4.57
2017-07-10T16:01:17.483Z,4.07
2017-07-10T16:03:44.110Z,3.67
2017-07-10T16:06:10.734Z,3.30
2017-07-10T16:08:37.365Z,3.53
2017-07-10T16:11:04.012Z,4.53
2017-07-10T16:13:30.683Z,4.37
2017-07-10T16:15:57.327Z,3.83
2017-07-10T16:18:23.968Z,3.80
2017-07-10T16:20:50.631Z,3.50
2017-07-10T16:23:17.275Z,3.77
2017-07-10T16:25:43.891Z,2.87
2017-07-10T16:28:10.534Z,4.10
2017-07-10T16:30:37.171Z,3.80
2017-07-10T16:33:03.809Z,8.10
2017-07-10T16:35:30.471Z,10.60
2017-07-10T16:37:57.102Z,12.23
2017-07-10T16:40:23.738Z,12.80
2017-07-10T16:42:50.404Z,12.40
2017-07-10T16:45:17.052Z,12.93
2017-07-10T16:47:43.693Z,14.70
2017-07-10T16:50:10.361Z,13.40
2017-07-10T16:52:37.008Z,14.27
2017-07-10T16:55:03.656Z,13.00
2017-07-10T16:57:30.316Z,16.23
2017-07-10T16:59:56.937Z,14.60
2017-07-10T17:02:24.703Z,14.83
2017-07-10T17:04:51.371Z,15.10
2017-07-10T17:07:18.011Z,15.70
2017-07-10T17:09:46.091Z,16.40
2017-07-10T17:12:12.716Z,16.37
2017-07-10T17:14:39.364Z,17.53
2017-07-10T17:17:05.985Z,17.97
2017-07-10T17:19:32.664Z,18.40
2017-07-10T17:21:59.303Z,18.73
2017-07-10T17:24:26.281Z,21.07
2017-07-10T17:26:54.880Z,18.80
2017-07-10T17:29:23.332Z,17.93
2017-07-10T17:31:51.659Z,16.20
2017-07-10T17:34:21.191Z,21.17
2017-07-10T17:36:52.691Z,19.50
2017-07-10T17:39:22.197Z,21.60
2017-07-10T17:41:52.578Z,23.57
2017-07-10T17:44:20.958Z,20.67
2017-07-10T17:46:49.708Z,16.00
2017-07-10T17:49:20.013Z,12.60
2017-07-10T17:51:47.632Z,8.90
2017-07-10T17:54:14.282Z,8.20
2017-07-10T17:56:40.927Z,9.20
2017-07-10T17:59:09.920Z,9.00
2017-07-10T18:01:36.584Z,8.10
2017-07-10T18:04:03.205Z,7.83
2017-07-10T18:06:30.589Z,7.47
2017-07-10T18:08:57.563Z,6.80
2017-07-10T18:11:24.184Z,6.90
2017-07-10T18:13:52.090Z,7.13
2017-07-10T18:16:21.903Z,7.60
2017-07-10T18:18:49.405Z,6.37
2017-07-10T18:21:19.356Z,5.03
2017-07-10T18:23:45.989Z,5.50
2017-07-10T18:26:12.633Z,4.40
2017-07-10T18:28:39.302Z,4.83
2017-07-10T18:31:07.757Z,3.40
2017-07-10T18:33:34.413Z,3.80
2017-07-10T18:36:02.276Z,3.13
2017-07-10T18:38:31.854Z,2.87
2017-07-10T18:41:00.023Z,2.43
2017-07-10T18:43:29.929Z,2.00
2017-07-10T18:46:00.659Z,2.30
2017-07-10T18:48:29.413Z,1.90
2017-07-10T18:50:59.949Z,2.07
2017-07-10T18:53:31.666Z,2.07
2017-07-10T18:56:00.628Z,2.30
2017-07-10T18:58:27.264Z,2.10
2017-07-10T19:00:53.898Z,1.93
2017-07-10T19:03:24.949Z,2.07
2017-07-10T19:05:52.830Z,2.30
2017-07-10T19:08:21.504Z,1.83
2017-07-10T19:10:50.310Z,2.63
2017-07-10T19:13:20.495Z,2.10
2017-07-10T19:15:47.928Z,2.23
2017-07-10T19:18:16.580Z,1.80
2017-07-10T19:20:45.095Z,1.80
2017-07-10T19:23:13.511Z,3.80
2017-07-10T19:25:43.123Z,2.53
2017-07-10T19:28:11.453Z,2.30
2017-07-10T19:30:41.157Z,2.50
2017-07-10T19:33:08.624Z,3.20
2017-07-10T19:35:38.010Z,3.60
2017-07-10T19:38:04.636Z,3.43
2017-07-10T19:40:31.696Z,4.53
2017-07-10T19:43:01.399Z,7.30
2017-07-10T19:45:28.041Z,3.47
2017-07-10T19:47:58.297Z,2.03
2017-07-10T19:50:26.330Z,2.10
2017-07-10T19:52:58.054Z,2.30
2017-07-10T19:55:27.981Z,2.53
2017-07-10T19:57:57.364Z,2.40
2017-07-10T20:00:26.190Z,2.97
2017-07-10T20:02:55.967Z,3.53
2017-07-10T20:05:25.590Z,2.40
2017-07-10T20:07:53.300Z,2.30
2017-07-10T20:10:22.708Z,2.30
2017-07-10T20:12:51.477Z,1.83
2017-07-10T20:15:20.142Z,1.63
2017-07-10T20:17:49.659Z,1.83
2017-07-10T20:20:18.136Z,2.20
2017-07-10T20:22:48.298Z,3.10
2017-07-10T20:25:17.732Z,2.50
2017-07-10T20:27:47.480Z,2.37
2017-07-10T20:30:16.379Z,2.30
2017-07-10T20:32:48.869Z,1.83
2017-07-10T20:35:17.887Z,1.80
2017-07-10T20:37:46.582Z,2.50
2017-07-10T20:40:13.227Z,1.50
2017-07-10T20:42:39.852Z,2.23
2017-07-10T20:45:06.490Z,2.00
2017-07-10T20:47:33.152Z,1.40
2017-07-10T20:49:59.800Z,2.10
2017-07-10T20:52:26.424Z,1.77
2017-07-10T20:54:53.052Z,1.57
2017-07-10T20:57:19.727Z,2.50
2017-07-10T20:59:46.366Z,2.50
2017-07-10T21:02:12.981Z,2.40
2017-07-10T21:04:39.620Z,2.77
2017-07-10T21:07:06.274Z,2.67
2017-07-10T21:09:33.647Z,2.70
2017-07-10T21:12:00.293Z,2.80
2017-07-10T21:14:27.544Z,3.03
2017-07-10T21:16:54.832Z,4.50
2017-07-10T21:19:21.529Z,2.83
2017-07-10T21:21:48.158Z,3.00
2017-07-10T21:24:14.877Z,2.80
2017-07-10T21:26:41.496Z,3.17
2017-07-10T21:29:08.111Z,3.20
2017-07-10T21:31:34.761Z,3.50
2017-07-10T21:34:01.937Z,3.67
2017-07-10T21:36:28.580Z,4.50
2017-07-10T21:38:55.186Z,3.40
2017-07-10T21:41:22.512Z,2.90
2017-07-10T21:43:49.999Z,2.70
2017-07-10T21:46:17.393Z,3.47
2017-07-10T21:48:44.023Z,2.70
2017-07-10T21:51:10.662Z,2.57
2017-07-10T21:53:37.312Z,2.90
2017-07-10T21:56:03.938Z,2.60
2017-07-10T21:58:30.578Z,2.60
2017-07-10T22:00:57.829Z,3.10
2017-07-10T22:03:24.455Z,1.67
2017-07-10T22:05:51.993Z,2.57
2017-07-10T22:08:18.639Z,2.20
2017-07-10T22:10:45.283Z,2.67
2017-07-10T22:13:11.908Z,2.20
2017-07-10T22:15:39.395Z,2.10
2017-07-10T22:18:06.021Z,2.33
2017-07-10T22:20:32.673Z,1.90
2017-07-10T22:22:59.296Z,2.13
2017-07-10T22:25:25.939Z,2.13
2017-07-10T22:27:52.581Z,1.80
2017-07-10T22:30:19.194Z,1.93
2017-07-10T22:32:45.853Z,1.83
2017-07-10T22:35:12.502Z,2.27
2017-07-10T22:37:39.148Z,2.67
2017-07-10T22:40:05.775Z,2.50
2017-07-10T22:42:32.418Z,2.33
2017-07-10T22:44:59.935Z,2.30
2017-07-10T22:47:26.560Z,1.87
2017-07-10T22:49:53.188Z,2.63
2017-07-10T22:52:19.850Z,2.30
2017-07-10T22:54:46.474Z,1.80
2017-07-10T22:57:13.121Z,2.00
2017-07-10T22:59:39.772Z,1.93
2017-07-10T23:02:06.423Z,2.60
2017-07-10T23:04:33.064Z,2.57
2017-07-10T23:06:59.695Z,2.27
2017-07-10T23:09:28.088Z,3.10
2017-07-10T23:11:54.677Z,2.30
2017-07-10T23:14:21.339Z,2.27
2017-07-10T23:16:47.968Z,2.80
2017-07-10T23:19:15.455Z,2.60
2017-07-10T23:21:42.096Z,1.83
2017-07-10T23:24:09.809Z,1.50
2017-07-10T23:26:36.847Z,1.73
2017-07-10T23:29:03.508Z,2.27
2017-07-10T23:31:30.145Z,2.13
2017-07-10T23:33:56.771Z,1.40
2017-07-10T23:36:23.396Z,1.80
2017-07-10T23:38:50.035Z,2.03
2017-07-10T23:41:16.645Z,1.80
2017-07-10T23:43:43.295Z,1.70
2017-07-10T23:46:09.918Z,2.13
2017-07-10T23:48:36.907Z,1.97
2017-07-10T23:51:03.540Z,2.23
2017-07-10T23:53:30.172Z,1.93
2017-07-10T23:55:56.822Z,1.90
2017-07-10T23:58:23.451Z,2.23
